Terminal Aerodrome Forecast
Issued by NWS Louisville, KY

Home | Current Version | Previous Version | Text Only | Print | Product List | Glossary On
Versions: 1 2 3 4 5 6 7 8 9 10 11 12 13 14 15 16 17 18
000
FTUS43 KLMK 221741
TAFSDF
TAF
KSDF 221741Z 2218/2324 19015G26KT 6SM -SHRA BR BKN060
     FM222100 19015G25KT P6SM BKN025
     FM222300 20015G25KT P6SM VCSH BKN040
     FM230100 21017G24KT P6SM SKC
     FM230600 23010G20KT P6SM VCSH SCT050
     FM231200 24010G20KT P6SM BKN025=

USA.gov is the U.S. government's official web portal to all federal, state and local government web resources and services.